Olathe, KS (66062)

7:44 AM CST on December 06, 2016 (GMT -0600)
Copper Creek | | Change Station

Elev 1089 ft 38.86 °N, 94.76 °W | Updated 4 minutes ago

Overcast
Overcast
30.9 °F
Feels Like 31 °F
N
2.7
Wind Variable Wind from North
Gusts 3.7 mph

Today
High -- | Low -- °F
--% Chance of Precip.
Yesterday
High -- | Low -- °F
Precip. -- in
Pressure 29.96 in
Visibility 10.0 miles
Clouds Overcast 7000 ft
Windchill 31 °F
Dew Point 25 °F
Humidity 80%
Rainfall 0.00 in
Snow Depth Not available.
7:23 AM 4:56 PM
Waxing Crescent, 42% visible
METAR KOJC 061253Z 34015G29KT 10SM OVC070 00/M04 A2994 RMK AO2 PK WND 34029/1247 SLP144 T00001044
Pressure 29.96 in
Visibility 10.0 miles
Clouds Overcast 7000 ft
Windchill 31 °F
Dew Point 25 °F
Humidity 80%
Rainfall 0.00 in
Snow Depth Not available.
7:23 AM 4:56 PM
Waxing Crescent, 42% visible
METAR KOJC 061253Z 34015G29KT 10SM OVC070 00/M04 A2994 RMK AO2 PK WND 34029/1247 SLP144 T00001044

10-Day Weather Forecast

Almanac

Astronomy

Dec. 06, 2016 Rise Set
Actual Time
Civil Twilight
Nautical Twilight
Astronomical Twilight
Moon
Length of Visible Light
Length of Day
Tomorrow will be .
, % of the Moon is Illuminated

Today's Extremes

State Highs State Lows

Community

WunderPhotos

Upload Photos

1,955,944 photos uploaded!

WunderBlog® & News

Nearby

Air Quality

  Air Quality AQ Index Pollutant
Not available.

Snow Depth

Station Depth Elevation

Earthquake Activity

City Distance Mag. Time & Date
Minimum magnitude displayed is 2.5.

Coastal Water Temperatures

Place Temperature

Stations

Nearby Weather Stations

Station Location Temp. Windchill Dew Point Humidity Wind Precip. Elev Updated Type
                   

Watches & Warnings

There are currently no watches in effect.